createdAt,value
2019-03-27T00:00:42.785Z,1.67
2019-03-27T00:03:15.903Z,2.00
2019-03-27T00:05:47.902Z,1.60
2019-03-27T00:08:20.012Z,1.70
2019-03-27T00:10:52.102Z,1.70
2019-03-27T00:13:24.494Z,2.00
2019-03-27T00:15:56.333Z,1.62
2019-03-27T00:18:28.432Z,1.60
2019-03-27T00:21:00.635Z,1.87
2019-03-27T00:23:33.169Z,2.10
2019-03-27T00:26:05.560Z,2.02
2019-03-27T00:28:37.639Z,2.20
2019-03-27T00:31:11.875Z,2.12
2019-03-27T00:33:43.413Z,1.98
2019-03-27T00:36:15.505Z,2.30
2019-03-27T00:38:47.963Z,1.95
2019-03-27T00:41:20.288Z,2.08
2019-03-27T00:43:53.087Z,2.05
2019-03-27T00:46:25.110Z,2.25
2019-03-27T00:48:57.403Z,2.12
2019-03-27T00:51:30.386Z,2.20
2019-03-27T00:54:02.500Z,2.30
2019-03-27T00:56:34.499Z,1.95
2019-03-27T00:59:06.959Z,2.27
2019-03-27T01:01:39.667Z,2.35
2019-03-27T01:04:11.681Z,2.02
2019-03-27T01:06:43.847Z,3.22
2019-03-27T01:09:15.922Z,3.25
2019-03-27T01:11:47.985Z,3.85
2019-03-27T01:14:20.466Z,3.83
2019-03-27T01:16:52.765Z,4.25
2019-03-27T01:19:24.875Z,4.10
2019-03-27T01:21:57.038Z,4.70
2019-03-27T01:24:29.391Z,4.10
2019-03-27T01:27:01.370Z,4.75
2019-03-27T01:29:33.661Z,4.53
2019-03-27T01:32:05.686Z,4.47
2019-03-27T01:34:37.641Z,4.85
2019-03-27T01:37:10.181Z,5.08
2019-03-27T01:39:42.547Z,4.95
2019-03-27T01:42:14.617Z,5.20
2019-03-27T01:44:47.013Z,4.78
2019-03-27T01:47:19.368Z,4.95
2019-03-27T01:49:52.342Z,5.05
2019-03-27T01:52:25.049Z,4.78
2019-03-27T01:54:57.315Z,4.70
2019-03-27T01:57:29.374Z,5.12
2019-03-27T02:00:01.676Z,4.53
2019-03-27T02:02:34.655Z,5.12
2019-03-27T02:05:07.422Z,4.92
2019-03-27T02:07:39.400Z,4.90
2019-03-27T02:10:13.027Z,5.17
2019-03-27T02:12:45.092Z,4.78
2019-03-27T02:15:17.176Z,5.53
2019-03-27T02:17:49.159Z,5.05
2019-03-27T02:20:21.187Z,4.85
2019-03-27T02:22:53.461Z,4.53
2019-03-27T02:25:25.505Z,4.90
2019-03-27T02:27:57.546Z,4.78
2019-03-27T02:30:30.910Z,4.70
2019-03-27T02:33:02.942Z,5.00
2019-03-27T02:35:35.854Z,4.83
2019-03-27T02:38:07.979Z,5.15
2019-03-27T02:40:40.116Z,4.67
2019-03-27T02:43:12.398Z,5.05
2019-03-27T02:45:44.626Z,4.55
2019-03-27T02:48:16.823Z,4.22
2019-03-27T02:50:48.896Z,6.25
2019-03-27T02:53:20.942Z,6.47
2019-03-27T02:55:52.982Z,6.90
2019-03-27T02:58:26.274Z,6.85
2019-03-27T03:00:58.453Z,6.05
2019-03-27T03:03:30.246Z,6.17
2019-03-27T03:06:02.517Z,5.67
2019-03-27T03:08:34.722Z,5.33
2019-03-27T03:11:06.913Z,4.62
2019-03-27T03:13:38.901Z,4.65
2019-03-27T03:16:11.338Z,5.40
2019-03-27T03:18:43.308Z,5.60
2019-03-27T03:21:16.224Z,5.08
2019-03-27T03:23:48.217Z,6.20
2019-03-27T03:26:20.306Z,6.17
2019-03-27T03:28:52.302Z,6.58
2019-03-27T03:31:24.581Z,7.62
2019-03-27T03:33:56.955Z,6.50
2019-03-27T03:36:29.289Z,6.62
2019-03-27T03:39:01.315Z,6.50
2019-03-27T03:41:33.913Z,6.10
2019-03-27T03:44:06.025Z,5.28
2019-03-27T03:46:38.467Z,5.40
2019-03-27T03:49:11.077Z,6.05
2019-03-27T03:51:43.245Z,6.08
2019-03-27T03:54:15.518Z,5.87
2019-03-27T03:56:51.386Z,5.40
2019-03-27T03:59:26.570Z,5.97
2019-03-27T04:02:01.577Z,5.70
2019-03-27T04:04:36.842Z,5.65
2019-03-27T04:07:09.095Z,5.80
2019-03-27T04:09:41.684Z,6.30
2019-03-27T04:12:13.643Z,6.42
2019-03-27T04:14:45.558Z,6.42
2019-03-27T04:17:18.158Z,6.37
2019-03-27T04:19:50.108Z,6.28
2019-03-27T04:22:22.429Z,6.28
2019-03-27T04:24:54.413Z,6.67
2019-03-27T04:27:26.550Z,6.60
2019-03-27T04:29:58.560Z,6.70
2019-03-27T04:32:30.692Z,6.37
2019-03-27T04:35:03.141Z,5.53
2019-03-27T04:37:35.204Z,6.67
2019-03-27T04:40:08.397Z,6.05
2019-03-27T04:42:41.559Z,7.20
2019-03-27T04:45:15.114Z,7.25
2019-03-27T04:47:47.589Z,6.47
2019-03-27T04:50:19.653Z,6.33
2019-03-27T04:52:51.901Z,7.00
2019-03-27T04:55:24.375Z,5.85
2019-03-27T04:57:56.400Z,5.80
2019-03-27T05:00:28.450Z,5.97
2019-03-27T05:03:00.493Z,6.08
2019-03-27T05:05:32.970Z,6.37
2019-03-27T05:08:04.968Z,7.47
2019-03-27T05:10:37.061Z,5.47
2019-03-27T05:13:09.501Z,6.20
2019-03-27T05:15:41.845Z,6.53
2019-03-27T05:18:14.081Z,6.70
2019-03-27T05:20:46.665Z,5.97
2019-03-27T05:23:18.748Z,6.33
2019-03-27T05:25:50.880Z,6.03
2019-03-27T05:28:23.186Z,6.00
2019-03-27T05:30:55.199Z,6.35
2019-03-27T05:33:28.850Z,6.65
2019-03-27T05:36:00.716Z,6.55
2019-03-27T05:38:32.723Z,6.00
2019-03-27T05:41:04.851Z,6.40
2019-03-27T05:43:37.024Z,6.22
2019-03-27T05:46:10.475Z,6.97
2019-03-27T05:48:42.503Z,5.97
2019-03-27T05:51:17.469Z,5.67
2019-03-27T05:53:49.580Z,6.50
2019-03-27T05:56:21.617Z,6.40
2019-03-27T05:58:53.632Z,5.97
2019-03-27T06:01:25.574Z,5.40
2019-03-27T06:03:57.593Z,5.95
2019-03-27T06:06:29.871Z,5.90
2019-03-27T06:09:04.614Z,6.72
2019-03-27T06:11:36.591Z,6.42
2019-03-27T06:14:08.627Z,6.62
2019-03-27T06:16:40.968Z,5.75
2019-03-27T06:19:12.862Z,6.20
2019-03-27T06:21:44.857Z,5.60
2019-03-27T06:24:17.230Z,5.33
2019-03-27T06:26:49.320Z,5.10
2019-03-27T06:29:21.240Z,4.87
2019-03-27T06:31:53.611Z,6.22
2019-03-27T06:34:25.895Z,5.50
2019-03-27T06:36:57.912Z,5.87
2019-03-27T06:39:29.898Z,5.00
2019-03-27T06:42:01.756Z,5.03
2019-03-27T06:44:35.026Z,5.20
2019-03-27T06:47:07.154Z,4.67
2019-03-27T06:49:39.466Z,5.17
2019-03-27T06:52:11.467Z,6.47
2019-03-27T06:54:43.367Z,5.00
2019-03-27T06:57:15.414Z,5.22
2019-03-27T06:59:47.476Z,4.50
2019-03-27T07:02:19.808Z,3.98
2019-03-27T07:04:51.631Z,4.72
2019-03-27T07:07:23.920Z,4.62
2019-03-27T07:09:56.481Z,4.22
2019-03-27T07:12:28.635Z,4.80
2019-03-27T07:15:00.714Z,4.62
2019-03-27T07:17:33.002Z,4.50
2019-03-27T07:20:05.761Z,4.33
2019-03-27T07:22:37.765Z,4.80
2019-03-27T07:25:10.273Z,5.50
2019-03-27T07:27:42.700Z,4.33
2019-03-27T07:30:16.338Z,4.62
2019-03-27T07:32:48.581Z,4.83
2019-03-27T07:35:20.529Z,4.62
2019-03-27T07:37:52.563Z,5.03
2019-03-27T07:40:24.855Z,5.33
2019-03-27T07:42:56.978Z,4.37
2019-03-27T07:45:28.965Z,5.20
2019-03-27T07:48:00.844Z,5.17
2019-03-27T07:50:32.893Z,4.47
2019-03-27T07:53:04.906Z,3.75
2019-03-27T07:55:36.974Z,3.65
2019-03-27T07:58:08.868Z,4.05
2019-03-27T08:00:40.991Z,3.77
2019-03-27T08:03:13.043Z,6.17
2019-03-27T08:05:45.074Z,5.75
2019-03-27T08:08:17.345Z,4.25
2019-03-27T08:10:49.617Z,4.33
2019-03-27T08:13:22.005Z,9.00
2019-03-27T08:15:54.303Z,9.08
2019-03-27T08:18:26.635Z,5.42
2019-03-27T08:20:58.902Z,8.23
2019-03-27T08:23:30.895Z,7.53
2019-03-27T08:26:03.424Z,4.55
2019-03-27T08:28:35.508Z,4.90
2019-03-27T08:31:07.601Z,5.55
2019-03-27T08:33:39.900Z,3.50
2019-03-27T08:36:12.179Z,6.00
2019-03-27T08:38:44.025Z,5.00
2019-03-27T08:41:16.097Z,5.00
2019-03-27T08:43:48.471Z,5.03
2019-03-27T08:46:20.572Z,5.28
2019-03-27T08:48:52.656Z,4.10
2019-03-27T08:51:24.699Z,3.85
2019-03-27T08:53:56.947Z,3.80
2019-03-27T08:56:29.972Z,3.90
2019-03-27T08:59:01.918Z,3.62
2019-03-27T09:01:33.959Z,4.10
2019-03-27T09:04:07.349Z,3.77
2019-03-27T09:06:39.351Z,3.60
2019-03-27T09:09:12.442Z,4.03
2019-03-27T09:11:44.930Z,3.30
2019-03-27T09:14:16.914Z,3.70
2019-03-27T09:16:48.925Z,3.15
2019-03-27T09:19:34.926Z,3.55
2019-03-27T09:21:55.978Z,3.77
2019-03-27T09:24:28.492Z,3.40
2019-03-27T09:27:00.843Z,3.40
2019-03-27T09:29:32.874Z,3.30
2019-03-27T09:32:04.891Z,2.92
2019-03-27T09:34:37.332Z,3.15
2019-03-27T09:37:09.946Z,2.80
2019-03-27T09:39:42.221Z,3.05
2019-03-27T09:42:14.352Z,2.98
2019-03-27T09:44:46.811Z,2.37
2019-03-27T09:47:20.144Z,3.25
2019-03-27T09:49:52.254Z,3.70
2019-03-27T09:52:25.592Z,2.75
2019-03-27T09:54:57.953Z,2.83
2019-03-27T09:57:30.426Z,2.87
2019-03-27T10:00:02.486Z,2.60
2019-03-27T10:02:34.832Z,2.72
2019-03-27T10:05:06.966Z,2.77
2019-03-27T10:07:39.089Z,2.50
2019-03-27T10:10:11.457Z,2.90
2019-03-27T10:12:43.967Z,2.40
2019-03-27T10:15:16.124Z,3.75
2019-03-27T10:17:48.057Z,2.47
2019-03-27T10:20:20.317Z,2.05
2019-03-27T10:22:52.327Z,2.10
2019-03-27T10:25:24.226Z,2.22
2019-03-27T10:27:56.429Z,3.10
2019-03-27T10:30:28.678Z,2.42
2019-03-27T10:33:00.760Z,2.33
2019-03-27T10:35:32.743Z,2.20
2019-03-27T10:38:05.194Z,2.92
2019-03-27T10:40:37.086Z,3.35
2019-03-27T10:43:09.245Z,2.47
2019-03-27T10:45:41.643Z,2.85
2019-03-27T10:48:13.994Z,2.02
2019-03-27T10:50:46.449Z,2.80
2019-03-27T10:53:18.514Z,2.45
2019-03-27T10:55:50.499Z,2.50
2019-03-27T10:58:22.430Z,2.30
2019-03-27T11:00:54.479Z,1.87
2019-03-27T11:03:26.895Z,2.42
2019-03-27T11:05:59.055Z,2.10
2019-03-27T11:08:31.186Z,2.47
2019-03-27T11:11:03.466Z,1.77
2019-03-27T11:13:35.608Z,2.15
2019-03-27T11:16:07.550Z,1.92
2019-03-27T11:18:39.549Z,2.10
2019-03-27T11:21:11.449Z,2.37
2019-03-27T11:23:43.699Z,1.98
2019-03-27T11:26:15.696Z,2.33
2019-03-27T11:28:48.238Z,1.95
2019-03-27T11:31:20.172Z,3.05
2019-03-27T11:33:52.246Z,2.12
2019-03-27T11:36:24.201Z,2.83
2019-03-27T11:38:56.411Z,2.47
2019-03-27T11:41:28.226Z,2.90
2019-03-27T11:44:00.682Z,3.52
2019-03-27T11:46:33.055Z,2.30
2019-03-27T11:49:05.503Z,2.30
2019-03-27T11:51:37.477Z,1.87
2019-03-27T11:54:09.539Z,2.50
2019-03-27T11:56:41.617Z,2.40
2019-03-27T11:59:13.714Z,2.60
2019-03-27T12:01:45.687Z,1.90
2019-03-27T12:04:17.843Z,2.85
2019-03-27T12:06:49.853Z,1.87
2019-03-27T12:09:22.468Z,1.42
2019-03-27T12:11:54.354Z,2.00
2019-03-27T12:14:26.367Z,2.17
2019-03-27T12:16:59.044Z,2.75
2019-03-27T12:19:31.035Z,2.22
2019-03-27T12:22:03.096Z,2.52
2019-03-27T12:24:35.362Z,2.20
2019-03-27T12:27:07.353Z,2.20
2019-03-27T12:29:39.630Z,2.27
2019-03-27T12:32:11.675Z,2.22
2019-03-27T12:34:43.748Z,4.10
2019-03-27T12:37:15.816Z,2.95
2019-03-27T12:39:48.518Z,2.42
2019-03-27T12:42:21.108Z,2.55
2019-03-27T12:44:53.182Z,2.33
2019-03-27T12:47:25.059Z,2.40
2019-03-27T12:49:57.986Z,2.60
2019-03-27T12:52:29.879Z,2.62
2019-03-27T12:55:02.320Z,2.40
2019-03-27T12:57:34.226Z,2.85
2019-03-27T13:00:07.959Z,2.70
2019-03-27T13:02:40.010Z,2.83
2019-03-27T13:05:12.464Z,2.12
2019-03-27T13:07:49.804Z,2.17
2019-03-27T13:10:18.490Z,2.17
2019-03-27T13:12:50.575Z,1.75
2019-03-27T13:15:23.233Z,2.37
2019-03-27T13:17:55.060Z,2.58
2019-03-27T13:20:27.070Z,2.10
2019-03-27T13:22:59.055Z,2.47
2019-03-27T13:25:32.411Z,2.40
2019-03-27T13:28:04.383Z,2.30
2019-03-27T13:30:36.433Z,2.40
2019-03-27T13:33:08.356Z,2.55
2019-03-27T13:35:40.530Z,2.20
2019-03-27T13:38:12.487Z,2.33
2019-03-27T13:40:44.591Z,2.40
2019-03-27T13:43:16.681Z,1.95
2019-03-27T13:45:48.675Z,2.15
2019-03-27T13:48:20.760Z,2.62
2019-03-27T13:50:52.853Z,2.00
2019-03-27T13:53:25.210Z,2.42
2019-03-27T13:55:57.599Z,2.25
2019-03-27T13:58:29.538Z,2.17
2019-03-27T14:01:01.632Z,2.02
2019-03-27T14:03:34.834Z,2.30
2019-03-27T14:06:06.814Z,2.25
2019-03-27T14:08:39.095Z,1.90
2019-03-27T14:11:11.064Z,1.92
2019-03-27T14:13:43.546Z,2.40
2019-03-27T14:16:16.279Z,2.75
2019-03-27T14:18:49.161Z,2.55
2019-03-27T14:21:23.300Z,2.27
2019-03-27T14:23:54.915Z,2.50
2019-03-27T14:26:27.339Z,3.60
2019-03-27T14:28:59.454Z,2.77
2019-03-27T14:31:31.590Z,2.50
2019-03-27T14:34:04.517Z,2.33
2019-03-27T14:36:36.589Z,2.67
2019-03-27T14:39:09.728Z,2.52
2019-03-27T14:41:41.630Z,2.30
2019-03-27T14:44:13.553Z,2.70
2019-03-27T14:46:45.626Z,2.62
2019-03-27T14:49:18.061Z,3.15
2019-03-27T14:51:50.211Z,2.75
2019-03-27T14:54:23.034Z,2.75
2019-03-27T14:56:55.246Z,2.62
2019-03-27T14:59:27.657Z,2.37
2019-03-27T15:01:59.742Z,2.55
2019-03-27T15:04:31.835Z,2.90
2019-03-27T15:07:04.127Z,2.50
2019-03-27T15:09:36.342Z,2.42
2019-03-27T15:12:08.699Z,3.83
2019-03-27T15:14:40.769Z,3.00
2019-03-27T15:17:12.651Z,2.47
2019-03-27T15:19:44.663Z,2.87
2019-03-27T15:22:22.291Z,2.20
2019-03-27T15:24:50.467Z,2.60
2019-03-27T15:27:22.425Z,2.60
2019-03-27T15:29:54.595Z,2.80
2019-03-27T15:32:26.690Z,2.95
2019-03-27T15:34:58.781Z,3.00
2019-03-27T15:37:31.279Z,2.75
2019-03-27T15:40:03.404Z,3.20
2019-03-27T15:42:35.374Z,3.42
2019-03-27T15:45:09.439Z,2.80
2019-03-27T15:47:41.462Z,3.00
2019-03-27T15:50:13.557Z,3.25
2019-03-27T15:52:45.454Z,3.10
2019-03-27T15:55:17.421Z,2.83
2019-03-27T15:57:49.466Z,3.30
2019-03-27T16:00:21.734Z,3.00
2019-03-27T16:02:54.078Z,6.33
2019-03-27T16:05:26.143Z,3.40
2019-03-27T16:07:58.178Z,2.92
2019-03-27T16:10:30.582Z,3.37
2019-03-27T16:13:02.609Z,3.10
2019-03-27T16:15:37.026Z,3.20
2019-03-27T16:18:08.826Z,2.80
2019-03-27T16:20:41.053Z,2.65
2019-03-27T16:23:13.362Z,2.77
2019-03-27T16:25:45.417Z,2.98
2019-03-27T16:28:17.431Z,3.67
2019-03-27T16:30:49.530Z,3.15
2019-03-27T16:33:22.722Z,3.90
2019-03-27T16:36:06.466Z,3.58
2019-03-27T16:38:38.935Z,3.27
2019-03-27T16:41:11.045Z,2.90
2019-03-27T16:43:44.370Z,2.70
2019-03-27T16:46:16.477Z,3.17
2019-03-27T16:48:49.168Z,3.22
2019-03-27T16:51:21.585Z,2.70
2019-03-27T16:53:53.532Z,2.90
2019-03-27T16:56:26.921Z,2.77
2019-03-27T16:58:58.905Z,2.60
2019-03-27T17:01:31.137Z,3.37
2019-03-27T17:04:03.278Z,3.20
2019-03-27T17:06:35.682Z,2.72
2019-03-27T17:09:09.762Z,3.25
2019-03-27T17:11:42.015Z,3.30
2019-03-27T17:14:14.037Z,3.40
2019-03-27T17:16:46.479Z,2.65
2019-03-27T17:19:18.740Z,2.60
2019-03-27T17:21:52.027Z,2.87
2019-03-27T17:24:24.408Z,3.15
2019-03-27T17:26:56.782Z,3.33
2019-03-27T17:29:28.890Z,3.20
2019-03-27T17:32:01.141Z,3.47
2019-03-27T17:34:33.412Z,3.72
2019-03-27T17:37:05.453Z,3.40
2019-03-27T17:39:38.746Z,3.67
2019-03-27T17:42:10.738Z,3.42
2019-03-27T17:44:42.792Z,3.72
2019-03-27T17:47:15.456Z,3.90
2019-03-27T17:49:47.746Z,4.53
2019-03-27T17:52:20.095Z,4.25
2019-03-27T17:54:52.634Z,4.40
2019-03-27T17:57:24.643Z,3.98
2019-03-27T17:59:56.674Z,4.08
2019-03-27T18:02:29.415Z,4.25
2019-03-27T18:05:01.507Z,4.50
2019-03-27T18:07:33.680Z,4.78
2019-03-27T18:10:06.275Z,4.83
2019-03-27T18:12:38.423Z,4.62
2019-03-27T18:15:10.891Z,4.47
2019-03-27T18:17:43.003Z,4.78
2019-03-27T18:20:14.937Z,4.25
2019-03-27T18:22:47.311Z,5.72
2019-03-27T18:25:19.859Z,5.12
2019-03-27T18:27:52.371Z,5.40
2019-03-27T18:30:24.697Z,5.40
2019-03-27T18:32:57.119Z,5.37
2019-03-27T18:35:29.435Z,6.05
2019-03-27T18:38:01.964Z,5.80
2019-03-27T18:40:33.968Z,5.10
2019-03-27T18:43:06.076Z,6.83
2019-03-27T18:45:38.066Z,7.30
2019-03-27T18:48:10.520Z,7.22
2019-03-27T18:50:43.210Z,6.28
2019-03-27T18:53:15.226Z,6.40
2019-03-27T18:55:47.215Z,8.38
2019-03-27T18:58:19.376Z,7.15
2019-03-27T19:00:51.272Z,7.95
2019-03-27T19:03:23.311Z,8.45
2019-03-27T19:05:55.244Z,6.75
2019-03-27T19:08:27.974Z,7.87
2019-03-27T19:11:00.529Z,7.00
2019-03-27T19:13:32.442Z,6.90
2019-03-27T19:16:04.526Z,6.92
2019-03-27T19:18:36.699Z,6.95
2019-03-27T19:21:08.817Z,6.95
2019-03-27T19:23:40.802Z,7.28
2019-03-27T19:26:13.235Z,7.37
2019-03-27T19:28:45.606Z,7.80
2019-03-27T19:31:18.080Z,8.13
2019-03-27T19:33:50.072Z,7.20
2019-03-27T19:36:22.277Z,6.45
2019-03-27T19:38:54.345Z,7.03
2019-03-27T19:41:26.305Z,7.40
2019-03-27T19:43:58.614Z,8.33
2019-03-27T19:46:30.674Z,10.23
2019-03-27T19:49:02.763Z,13.78
2019-03-27T19:51:35.990Z,12.07
2019-03-27T19:54:08.066Z,10.13
2019-03-27T19:56:40.075Z,9.25
2019-03-27T19:59:12.358Z,9.23
2019-03-27T20:01:44.386Z,10.08
2019-03-27T20:04:17.133Z,8.78
2019-03-27T20:06:49.229Z,8.90
2019-03-27T20:09:21.249Z,8.40
2019-03-27T20:11:53.101Z,8.28
2019-03-27T20:14:25.405Z,8.80
2019-03-27T20:16:58.392Z,7.78
2019-03-27T20:19:30.311Z,7.03
2019-03-27T20:22:02.470Z,6.15
2019-03-27T20:24:41.007Z,5.55
2019-03-27T20:27:08.884Z,5.85
2019-03-27T20:29:40.863Z,5.62
2019-03-27T20:32:13.173Z,5.55
2019-03-27T20:34:45.276Z,6.30
2019-03-27T20:37:17.715Z,6.42
2019-03-27T20:39:49.780Z,5.47
2019-03-27T20:42:22.420Z,6.05
2019-03-27T20:44:54.425Z,5.47
2019-03-27T20:47:26.692Z,6.05
2019-03-27T20:49:59.178Z,5.83
2019-03-27T20:52:31.153Z,5.65
2019-03-27T20:55:03.500Z,6.20
2019-03-27T20:57:35.528Z,5.50
2019-03-27T21:00:09.365Z,5.42
2019-03-27T21:02:41.630Z,6.05
2019-03-27T21:05:14.444Z,6.33
2019-03-27T21:07:46.387Z,5.60
2019-03-27T21:10:19.478Z,6.40
2019-03-27T21:12:51.712Z,5.95
2019-03-27T21:15:23.808Z,5.92
2019-03-27T21:17:55.863Z,6.17
2019-03-27T21:20:27.863Z,6.83
2019-03-27T21:23:00.904Z,6.78
2019-03-27T21:25:33.001Z,5.65
2019-03-27T21:28:05.461Z,5.03
2019-03-27T21:30:37.566Z,5.60
2019-03-27T21:33:09.566Z,5.95
2019-03-27T21:35:41.953Z,6.47
2019-03-27T21:38:14.040Z,7.25
2019-03-27T21:40:46.124Z,7.28
2019-03-27T21:43:18.131Z,7.05
2019-03-27T21:45:50.192Z,5.65
2019-03-27T21:48:22.274Z,6.12
2019-03-27T21:50:54.660Z,5.42
2019-03-27T21:53:26.654Z,6.25
2019-03-27T21:55:58.714Z,6.05
2019-03-27T21:58:30.778Z,6.22
2019-03-27T22:01:02.926Z,5.78
2019-03-27T22:03:35.082Z,5.40
2019-03-27T22:06:07.073Z,5.58
2019-03-27T22:08:39.111Z,5.67
2019-03-27T22:11:11.513Z,5.80
2019-03-27T22:13:43.842Z,5.75
2019-03-27T22:16:16.059Z,5.62
2019-03-27T22:18:48.093Z,7.25
2019-03-27T22:21:20.101Z,6.30
2019-03-27T22:23:52.557Z,6.20
2019-03-27T22:26:24.563Z,6.72
2019-03-27T22:28:56.515Z,6.30
2019-03-27T22:31:28.715Z,6.47
2019-03-27T22:34:01.072Z,6.25
2019-03-27T22:36:33.657Z,6.08
2019-03-27T22:39:09.978Z,5.85
2019-03-27T22:41:42.968Z,6.05
2019-03-27T22:44:15.024Z,6.75
2019-03-27T22:46:47.238Z,6.30
2019-03-27T22:49:19.547Z,5.42
2019-03-27T22:51:51.576Z,6.67
2019-03-27T22:54:24.121Z,6.40
2019-03-27T22:56:56.244Z,6.70
2019-03-27T22:59:28.605Z,5.90
2019-03-27T23:02:00.659Z,6.70
2019-03-27T23:04:35.884Z,6.45
2019-03-27T23:07:08.665Z,6.00
2019-03-27T23:09:40.768Z,6.12
2019-03-27T23:12:15.708Z,6.60
2019-03-27T23:14:49.470Z,6.10
2019-03-27T23:17:21.472Z,6.70
2019-03-27T23:19:53.908Z,6.90
2019-03-27T23:22:26.180Z,6.67
2019-03-27T23:24:58.460Z,6.78
2019-03-27T23:27:31.328Z,6.67
2019-03-27T23:30:05.307Z,6.30
2019-03-27T23:32:38.734Z,6.53
2019-03-27T23:35:11.056Z,6.58
2019-03-27T23:37:42.903Z,6.15
2019-03-27T23:40:15.168Z,6.58
2019-03-27T23:42:47.495Z,5.97
2019-03-27T23:45:19.581Z,6.20
2019-03-27T23:47:51.634Z,6.45
2019-03-27T23:50:23.629Z,6.08
2019-03-27T23:52:56.696Z,6.45
2019-03-27T23:55:28.740Z,6.20
2019-03-27T23:58:01.118Z,6.65
